createdAt,value
2022-09-11T00:09:29.741Z,29.50
2022-09-11T00:12:36.661Z,28.30
2022-09-11T00:15:43.130Z,28.60
2022-09-11T00:18:45.864Z,26.70
2022-09-11T00:25:16.644Z,25.80
2022-09-11T00:28:18.536Z,25.13
2022-09-11T00:31:26.979Z,26.23
2022-09-11T00:34:51.487Z,24.53
2022-09-11T00:38:02.605Z,26.20
2022-09-11T00:41:16.264Z,24.73
2022-09-11T00:44:19.181Z,26.97
2022-09-11T00:47:28.693Z,25.20
2022-09-11T00:50:26.990Z,24.40
2022-09-11T00:53:42.501Z,25.20
2022-09-11T00:56:51.691Z,24.07
2022-09-11T00:59:46.788Z,24.97
2022-09-11T01:02:55.273Z,24.63
2022-09-11T01:05:58.920Z,24.30
2022-09-11T01:09:03.556Z,24.27
2022-09-11T01:12:38.417Z,24.90
2022-09-11T01:16:19.726Z,24.00
2022-09-11T01:19:55.497Z,23.20
2022-09-11T01:23:09.360Z,23.10
2022-09-11T01:26:47.023Z,22.93
2022-09-11T01:30:11.920Z,22.87
2022-09-11T01:33:56.207Z,24.10
2022-09-11T01:37:10.116Z,23.63
2022-09-11T01:40:22.655Z,23.73
2022-09-11T01:43:57.618Z,25.43
2022-09-11T01:47:26.391Z,23.30
2022-09-11T01:50:26.901Z,26.47
2022-09-11T01:53:32.378Z,23.57
2022-09-11T01:56:50.372Z,24.73
2022-09-11T01:59:50.316Z,23.60
2022-09-11T02:02:52.395Z,25.20
2022-09-11T02:06:07.160Z,24.77
2022-09-11T02:09:06.618Z,24.80
2022-09-11T02:12:19.405Z,24.87
2022-09-11T02:15:44.670Z,24.50
2022-09-11T02:18:58.335Z,23.00
2022-09-11T02:22:11.325Z,21.93
2022-09-11T02:25:29.140Z,20.17
2022-09-11T02:29:31.654Z,19.50
2022-09-11T02:32:20.694Z,20.30
2022-09-11T02:35:35.617Z,18.50
2022-09-11T02:39:12.847Z,18.20
2022-09-11T02:42:35.318Z,19.40
2022-09-11T02:46:00.737Z,18.30
2022-09-11T02:49:06.753Z,19.43
2022-09-11T02:52:18.478Z,18.63
2022-09-11T02:55:38.997Z,19.37
2022-09-11T02:58:46.708Z,19.30
2022-09-11T03:02:08.987Z,19.93
2022-09-11T03:05:11.644Z,17.73
2022-09-11T03:08:10.777Z,19.10
2022-09-11T03:11:41.994Z,18.97
2022-09-11T03:14:51.886Z,18.17
2022-09-11T03:17:54.698Z,18.13
2022-09-11T03:21:18.062Z,18.47
2022-09-11T03:24:17.589Z,18.90
2022-09-11T03:30:23.717Z,17.47
2022-09-11T03:33:33.719Z,17.27
2022-09-11T03:36:43.374Z,16.53
2022-09-11T03:39:55.011Z,16.17
2022-09-11T03:43:15.519Z,14.67
2022-09-11T03:46:46.522Z,15.87
2022-09-11T03:50:04.574Z,14.37
2022-09-11T03:53:18.163Z,15.67
2022-09-11T03:56:44.177Z,14.40
2022-09-11T04:00:04.724Z,14.87
2022-09-11T04:03:00.422Z,16.33
2022-09-11T04:06:38.321Z,15.70
2022-09-11T04:10:06.761Z,15.00
2022-09-11T04:13:09.652Z,15.23
2022-09-11T04:16:28.838Z,15.37
2022-09-11T04:19:41.331Z,15.57
2022-09-11T04:22:48.872Z,15.20
2022-09-11T04:29:21.376Z,14.87
2022-09-11T04:32:23.841Z,13.53
2022-09-11T04:35:39.603Z,14.23
2022-09-11T04:38:49.741Z,13.40
2022-09-11T04:42:12.038Z,14.97
2022-09-11T04:45:20.249Z,13.00
2022-09-11T04:48:18.918Z,13.77
2022-09-11T04:51:34.088Z,13.30
2022-09-11T04:57:48.309Z,11.57
2022-09-11T05:01:05.393Z,11.07
2022-09-11T05:04:10.233Z,10.87
2022-09-11T05:07:19.257Z,11.60
2022-09-11T05:10:27.547Z,10.53
2022-09-11T05:16:58.305Z,10.00
2022-09-11T05:19:59.936Z,11.60
2022-09-11T05:26:45.077Z,11.40
2022-09-11T05:29:55.341Z,11.87
2022-09-11T05:33:10.780Z,11.37
2022-09-11T05:36:32.915Z,11.07
2022-09-11T05:39:35.152Z,10.03
2022-09-11T05:42:25.048Z,10.93
2022-09-11T05:45:54.204Z,11.60
2022-09-11T05:52:58.938Z,11.13
2022-09-11T05:56:03.034Z,11.50
2022-09-11T05:59:04.478Z,10.67
2022-09-11T06:01:53.861Z,10.67
2022-09-11T06:04:45.700Z,11.17
2022-09-11T06:07:38.092Z,10.67
2022-09-11T06:10:36.560Z,10.30
2022-09-11T06:13:28.348Z,10.10
2022-09-11T06:16:19.576Z,11.20
2022-09-11T06:19:07.895Z,11.10
2022-09-11T06:21:58.545Z,12.07
2022-09-11T06:24:47.007Z,10.87
2022-09-11T06:27:38.168Z,11.23
2022-09-11T06:30:36.738Z,10.40
2022-09-11T06:33:25.275Z,11.53
2022-09-11T06:36:15.847Z,11.67
2022-09-11T06:39:07.125Z,10.67
2022-09-11T06:41:55.266Z,11.97
2022-09-11T06:44:45.704Z,11.20
2022-09-11T06:47:38.165Z,10.97
2022-09-11T06:50:26.401Z,10.70
2022-09-11T06:53:15.461Z,10.07
2022-09-11T06:56:06.827Z,10.80
2022-09-11T06:58:55.158Z,12.33
2022-09-11T07:01:44.432Z,10.33
2022-09-11T07:04:32.662Z,10.40
2022-09-11T07:07:20.789Z,10.13
2022-09-11T07:10:11.008Z,10.50
2022-09-11T07:13:00.518Z,9.80
2022-09-11T07:15:49.186Z,9.90
2022-09-11T07:18:40.927Z,10.10
2022-09-11T07:21:31.187Z,9.20
2022-09-11T07:24:21.623Z,8.40
2022-09-11T07:27:10.273Z,8.03
2022-09-11T07:29:59.724Z,8.40
2022-09-11T07:32:50.852Z,7.57
2022-09-11T07:35:38.995Z,8.23
2022-09-11T07:38:29.841Z,7.40
2022-09-11T07:41:19.693Z,7.00
2022-09-11T07:44:09.049Z,7.57
2022-09-11T07:46:58.537Z,7.20
2022-09-11T07:49:48.038Z,7.30
2022-09-11T07:52:36.652Z,7.23
2022-09-11T07:55:26.470Z,7.57
2022-09-11T07:58:14.606Z,7.27
2022-09-11T08:01:03.546Z,7.80
2022-09-11T08:03:58.280Z,7.07
2022-09-11T08:06:47.046Z,7.33
2022-09-11T08:09:36.384Z,7.63
2022-09-11T08:12:24.511Z,7.60
2022-09-11T08:15:12.883Z,8.07
2022-09-11T08:18:00.988Z,7.30
2022-09-11T08:21:01.400Z,7.70
2022-09-11T08:23:50.000Z,6.70
2022-09-11T08:26:38.393Z,5.40
2022-09-11T08:29:26.581Z,5.90
2022-09-11T08:32:14.822Z,6.00
2022-09-11T08:35:06.602Z,4.67
2022-09-11T08:37:56.183Z,6.00
2022-09-11T08:40:49.801Z,5.20
2022-09-11T08:43:45.585Z,5.50
2022-09-11T08:46:39.844Z,5.73
2022-09-11T08:49:31.334Z,5.20
2022-09-11T08:52:21.639Z,5.17
2022-09-11T08:55:15.886Z,5.27
2022-09-11T08:58:12.240Z,4.97
2022-09-11T09:01:11.741Z,5.50
2022-09-11T09:04:21.198Z,5.47
2022-09-11T09:07:19.945Z,4.60
2022-09-11T09:10:20.173Z,4.20
2022-09-11T09:13:19.629Z,4.30
2022-09-11T09:16:22.524Z,4.60
2022-09-11T09:19:15.625Z,4.17
2022-09-11T09:22:11.261Z,3.90
2022-09-11T09:25:04.541Z,4.30
2022-09-11T09:28:00.122Z,4.70
2022-09-11T09:30:52.209Z,3.80
2022-09-11T09:33:45.714Z,4.50
2022-09-11T09:36:37.615Z,4.10
2022-09-11T09:39:26.238Z,4.60
2022-09-11T09:42:35.753Z,4.00
2022-09-11T09:45:35.327Z,4.20
2022-09-11T09:48:27.980Z,4.10
2022-09-11T09:51:16.579Z,3.80
2022-09-11T09:54:05.866Z,3.97
2022-09-11T09:57:03.269Z,4.10
2022-09-11T09:59:54.487Z,3.60
2022-09-11T10:02:45.445Z,3.50
2022-09-11T10:05:35.037Z,3.17
2022-09-11T10:08:31.929Z,3.53
2022-09-11T10:11:29.273Z,3.20
2022-09-11T10:14:49.343Z,4.57
2022-09-11T10:17:33.350Z,3.17
2022-09-11T10:20:26.722Z,3.07
2022-09-11T10:23:24.060Z,3.50
2022-09-11T10:26:16.701Z,2.93
2022-09-11T10:29:08.170Z,2.90
2022-09-11T10:31:57.804Z,3.10
2022-09-11T10:34:46.297Z,3.30
2022-09-11T10:37:36.462Z,3.00
2022-09-11T10:40:25.111Z,3.27
2022-09-11T10:43:22.320Z,3.10
2022-09-11T10:46:40.032Z,2.33
2022-09-11T10:49:28.675Z,2.43
2022-09-11T10:52:22.187Z,2.17
2022-09-11T10:55:15.452Z,2.10
2022-09-11T10:58:07.872Z,2.30
2022-09-11T11:00:56.620Z,2.00
2022-09-11T11:03:45.305Z,1.90
2022-09-11T11:06:40.602Z,2.20
2022-09-11T11:09:32.420Z,2.03
2022-09-11T11:12:32.586Z,1.90
2022-09-11T11:15:30.917Z,1.80
2022-09-11T11:18:26.661Z,1.77
2022-09-11T11:21:20.813Z,1.80
2022-09-11T11:24:25.163Z,1.50
2022-09-11T11:27:29.811Z,1.70
2022-09-11T11:30:21.691Z,1.57
2022-09-11T11:33:17.281Z,1.37
2022-09-11T11:36:10.360Z,1.50
2022-09-11T11:39:02.019Z,1.40
2022-09-11T11:41:53.598Z,1.60
2022-09-11T11:44:48.158Z,1.60
2022-09-11T11:47:38.716Z,1.73
2022-09-11T11:50:31.921Z,1.70
2022-09-11T11:53:22.750Z,1.50
2022-09-11T11:56:16.739Z,1.50
2022-09-11T11:59:12.395Z,1.90
2022-09-11T12:02:04.677Z,2.13
2022-09-11T12:04:55.813Z,1.90
2022-09-11T12:07:47.269Z,1.60
2022-09-11T12:10:39.110Z,1.50
2022-09-11T12:13:31.084Z,1.43
2022-09-11T12:16:21.662Z,1.77
2022-09-11T12:19:16.970Z,1.77
2022-09-11T12:22:07.065Z,1.80
2022-09-11T12:24:58.810Z,1.77
2022-09-11T12:27:55.658Z,1.67
2022-09-11T12:30:58.610Z,1.70
2022-09-11T12:33:56.618Z,1.43
2022-09-11T12:36:56.666Z,1.47
2022-09-11T12:39:50.092Z,1.30
2022-09-11T12:42:49.466Z,1.40
2022-09-11T12:45:40.549Z,1.30
2022-09-11T12:48:37.159Z,1.50
2022-09-11T12:51:27.017Z,1.30
2022-09-11T12:54:18.372Z,1.20
2022-09-11T12:57:08.093Z,1.30
2022-09-11T13:00:02.801Z,1.57
2022-09-11T13:02:55.385Z,1.50
2022-09-11T13:05:45.338Z,1.57
2022-09-11T13:08:37.572Z,1.67
2022-09-11T13:11:48.012Z,1.50
2022-09-11T13:14:50.264Z,1.20
2022-09-11T13:17:48.060Z,1.60
2022-09-11T13:20:38.954Z,1.23
2022-09-11T13:23:27.454Z,1.30
2022-09-11T13:26:24.626Z,1.20
2022-09-11T13:29:15.172Z,1.20
2022-09-11T13:32:11.382Z,0.97
2022-09-11T13:35:11.078Z,1.10
2022-09-11T13:38:03.252Z,1.27
2022-09-11T13:40:56.793Z,1.07
2022-09-11T13:43:47.101Z,1.00
2022-09-11T13:46:50.580Z,0.80
2022-09-11T13:49:41.972Z,1.20
2022-09-11T13:52:33.937Z,1.20
2022-09-11T13:55:26.807Z,1.10
2022-09-11T13:58:25.997Z,1.10
2022-09-11T14:01:14.930Z,1.20
2022-09-11T14:04:05.783Z,1.33
2022-09-11T14:06:54.277Z,1.60
2022-09-11T14:09:42.480Z,1.10
2022-09-11T14:12:32.052Z,1.30
2022-09-11T14:15:25.459Z,1.20
2022-09-11T14:18:20.675Z,1.40
2022-09-11T14:21:16.781Z,1.30
2022-09-11T14:24:18.777Z,1.50
2022-09-11T14:27:44.420Z,1.53
2022-09-11T14:30:37.506Z,1.47
2022-09-11T14:33:26.388Z,1.43
2022-09-11T14:36:19.957Z,1.20
2022-09-11T14:39:14.494Z,1.33
2022-09-11T14:42:03.167Z,1.50
2022-09-11T14:44:53.296Z,1.37
2022-09-11T14:47:41.520Z,1.37
2022-09-11T14:50:30.885Z,1.20
2022-09-11T14:53:29.055Z,1.30
2022-09-11T14:56:17.166Z,1.40
2022-09-11T14:59:05.241Z,1.40
2022-09-11T15:01:54.756Z,1.63
2022-09-11T15:04:42.894Z,1.33
2022-09-11T15:07:31.019Z,1.60
2022-09-11T15:10:23.675Z,1.30
2022-09-11T15:13:11.809Z,1.10
2022-09-11T15:16:00.224Z,1.40
2022-09-11T15:18:49.709Z,1.20
2022-09-11T15:21:38.706Z,1.40
2022-09-11T15:24:27.317Z,1.30
2022-09-11T15:27:15.511Z,1.07
2022-09-11T15:30:04.896Z,1.60
2022-09-11T15:32:53.100Z,1.50
2022-09-11T15:35:43.174Z,1.30
2022-09-11T15:38:32.035Z,1.23
2022-09-11T15:41:21.885Z,1.30
2022-09-11T15:44:11.878Z,1.10
2022-09-11T15:47:03.432Z,1.50
2022-09-11T15:49:51.599Z,1.30
2022-09-11T15:52:42.944Z,1.07
2022-09-11T15:55:31.069Z,1.40
2022-09-11T15:58:21.520Z,1.10
2022-09-11T16:01:18.035Z,1.37
2022-09-11T16:04:08.564Z,1.20
2022-09-11T16:06:56.752Z,1.20
2022-09-11T16:09:46.240Z,1.40
2022-09-11T16:12:34.678Z,1.70
2022-09-11T16:15:24.024Z,1.93
2022-09-11T16:18:12.583Z,1.47
2022-09-11T16:21:01.223Z,1.40
2022-09-11T16:23:53.779Z,1.20
2022-09-11T16:26:47.389Z,1.20
2022-09-11T16:30:05.492Z,1.30
2022-09-11T16:32:43.922Z,1.20
2022-09-11T16:35:32.333Z,1.20
2022-09-11T16:38:23.537Z,1.40
2022-09-11T16:41:14.096Z,1.47
2022-09-11T16:44:05.368Z,1.63
2022-09-11T16:46:53.937Z,1.20
2022-09-11T16:52:56.293Z,2.13
2022-09-11T16:55:50.004Z,1.97
2022-09-11T16:58:43.123Z,1.70
2022-09-11T17:01:48.128Z,2.10
2022-09-11T17:04:40.537Z,1.90
2022-09-11T17:07:33.180Z,1.90
2022-09-11T17:10:24.234Z,2.10
2022-09-11T17:13:19.573Z,2.10
2022-09-11T17:16:15.510Z,2.00
2022-09-11T17:19:11.315Z,2.07
2022-09-11T17:22:01.380Z,2.10
2022-09-11T17:24:49.677Z,2.10
2022-09-11T17:27:39.572Z,2.00
2022-09-11T17:30:27.759Z,1.80
2022-09-11T17:33:20.945Z,1.97
2022-09-11T17:36:15.897Z,1.77
2022-09-11T17:39:09.430Z,1.73
2022-09-11T17:42:01.965Z,2.27
2022-09-11T17:44:58.731Z,2.10
2022-09-11T17:47:48.566Z,2.10
2022-09-11T17:50:38.600Z,3.40
2022-09-11T17:53:29.439Z,3.17
2022-09-11T17:56:25.776Z,3.10
2022-09-11T17:59:17.197Z,2.97
2022-09-11T18:02:15.181Z,2.63
2022-09-11T18:05:07.091Z,2.90
2022-09-11T18:08:00.190Z,3.13
2022-09-11T18:10:58.796Z,3.40
2022-09-11T18:13:48.135Z,3.30
2022-09-11T18:16:38.576Z,3.80
2022-09-11T18:19:29.696Z,3.53
2022-09-11T18:22:19.842Z,3.30
2022-09-11T18:25:13.551Z,2.80
2022-09-11T18:28:09.775Z,3.37
2022-09-11T18:31:07.530Z,3.10
2022-09-11T18:33:57.674Z,3.70
2022-09-11T18:36:55.462Z,3.70
2022-09-11T18:39:46.460Z,3.53
2022-09-11T18:42:34.608Z,3.30
2022-09-11T18:45:25.170Z,3.40
2022-09-11T18:48:28.334Z,4.20
2022-09-11T18:51:28.182Z,4.30
2022-09-11T18:54:21.894Z,4.03
2022-09-11T18:57:10.089Z,4.37
2022-09-11T19:00:00.326Z,4.27
2022-09-11T19:02:52.091Z,4.10
2022-09-11T19:05:50.975Z,3.37
2022-09-11T19:08:43.384Z,3.03
2022-09-11T19:11:35.206Z,3.40
2022-09-11T19:14:23.879Z,2.53
2022-09-11T19:17:20.728Z,2.90
2022-09-11T19:20:19.476Z,2.53
2022-09-11T19:23:11.237Z,2.80
2022-09-11T19:26:03.979Z,2.63
2022-09-11T19:28:54.950Z,2.30
2022-09-11T19:31:43.177Z,2.10
2022-09-11T19:34:35.047Z,2.43
2022-09-11T19:37:30.936Z,2.23
2022-09-11T19:40:19.815Z,2.20
2022-09-11T19:43:12.134Z,2.00
2022-09-11T19:46:12.352Z,2.57
2022-09-11T19:49:20.459Z,2.50
2022-09-11T19:52:40.321Z,2.60
2022-09-11T19:55:49.562Z,2.20
2022-09-11T19:58:41.674Z,2.30
2022-09-11T20:01:49.477Z,2.33
2022-09-11T20:04:45.184Z,2.43
2022-09-11T20:07:44.530Z,2.27
2022-09-11T20:10:52.050Z,2.53
2022-09-11T20:13:55.807Z,2.70
2022-09-11T20:17:10.670Z,2.80
2022-09-11T20:20:14.842Z,2.80
2022-09-11T20:23:16.877Z,2.50
2022-09-11T20:26:28.750Z,2.43
2022-09-11T20:29:47.181Z,3.03
2022-09-11T20:33:04.674Z,2.70
2022-09-11T20:36:11.360Z,2.23
2022-09-11T20:39:15.645Z,2.60
2022-09-11T20:42:16.115Z,2.73
2022-09-11T20:45:35.982Z,2.60
2022-09-11T20:48:52.725Z,2.60
2022-09-11T20:52:23.786Z,2.73
2022-09-11T20:55:21.250Z,2.83
2022-09-11T20:58:17.242Z,3.20
2022-09-11T21:01:29.782Z,2.80
2022-09-11T21:04:33.619Z,2.97
2022-09-11T21:07:51.095Z,2.90
2022-09-11T21:10:57.627Z,3.03
2022-09-11T21:13:55.783Z,3.30
2022-09-11T21:17:01.012Z,3.00
2022-09-11T21:23:18.256Z,2.80
2022-09-11T21:26:17.708Z,2.90
2022-09-11T21:29:54.701Z,3.43
2022-09-11T21:33:03.857Z,3.13
2022-09-11T21:36:00.790Z,2.90
2022-09-11T21:42:49.406Z,3.47
2022-09-11T21:46:18.525Z,3.63
2022-09-11T21:49:25.606Z,3.20
2022-09-11T21:52:22.036Z,3.00
2022-09-11T21:55:31.566Z,3.70
2022-09-11T21:58:34.981Z,3.40
2022-09-11T22:01:50.361Z,3.93
2022-09-11T22:04:52.634Z,3.50
2022-09-11T22:07:51.401Z,3.37
2022-09-11T22:10:58.392Z,3.33
2022-09-11T22:14:14.059Z,3.97
2022-09-11T22:17:29.768Z,3.40
2022-09-11T22:20:53.532Z,3.70
2022-09-11T22:24:01.129Z,3.30
2022-09-11T22:27:05.199Z,3.73
2022-09-11T22:30:08.827Z,3.67
2022-09-11T22:33:20.595Z,3.00
2022-09-11T22:36:19.980Z,3.70
2022-09-11T22:39:15.546Z,3.70
2022-09-11T22:42:20.715Z,3.30
2022-09-11T22:46:00.374Z,3.13
2022-09-11T22:49:13.444Z,3.50
2022-09-11T22:52:44.066Z,3.50
2022-09-11T22:55:47.274Z,3.73
2022-09-11T22:58:51.594Z,3.30
2022-09-11T23:02:13.033Z,3.30
2022-09-11T23:05:29.810Z,3.10
2022-09-11T23:08:56.550Z,3.03
2022-09-11T23:12:15.097Z,3.63
2022-09-11T23:15:25.360Z,3.10
2022-09-11T23:18:44.530Z,3.33
2022-09-11T23:21:49.978Z,3.70
2022-09-11T23:24:54.746Z,3.83
2022-09-11T23:31:26.793Z,3.30
2022-09-11T23:34:46.450Z,3.50
2022-09-11T23:37:52.571Z,3.80
2022-09-11T23:40:53.861Z,3.90
2022-09-11T23:44:04.586Z,3.67
2022-09-11T23:47:10.437Z,3.60
2022-09-11T23:50:19.376Z,3.40
2022-09-11T23:53:41.592Z,3.90
2022-09-11T23:57:00.816Z,3.73
